NCAR-RAP Real-Time Weather Data

Output produced by METARs form (26 September 2017  14:29 UTC)
found at http://weather.rap.ucar.edu/surface/
 
Conditions at: KLAL observed 26 September 2017  13:50 UTC
Temperature: 29.0°C (84°F)
Dewpoint: 22.0°C (72°F) [RH = 66%]
Pressure (altimeter): 29.95 inches Hg (1014.3 mb)
Winds: calm
Visibility: 10 or more miles (16+ km)
Ceiling: at least 12,000 feet AGL
Clouds: clear skies
Present Weather: no significant weather observed at this time
KLAL 261350Z 00000KT 10SM SKC 29/22 A2995

Conditions at: KLAL observed 26 September 2017  12:50 UTC
Temperature: 26.0°C (79°F)
Dewpoint: 24.0°C (75°F) [RH = 89%]
Pressure (altimeter): 29.95 inches Hg (1014.3 mb)
Winds: calm
Visibility: 10 or more miles (16+ km)
Ceiling: at least 12,000 feet AGL
Clouds: clear skies
Present Weather: no significant weather observed at this time
KLAL 261250Z 00000KT 10SM SKC 26/24 A2995

Conditions at: KLAL observed 26 September 2017  11:50 UTC
Temperature: 24.0°C (75°F)
Dewpoint: 23.0°C (73°F) [RH = 94%]
Pressure (altimeter): 29.93 inches Hg (1013.6 mb)
Winds: calm
Visibility: 10 or more miles (16+ km)
Ceiling: at least 12,000 feet AGL
Clouds: clear skies
Present Weather: no significant weather observed at this time
KLAL 261150Z 00000KT 10SM SKC 24/23 A2993

Conditions at: KLAL observed 26 September 2017  10:50 UTC
Temperature: 23.0°C (73°F)
Dewpoint: 23.0°C (73°F) [RH = 100%]
Pressure (altimeter): 29.91 inches Hg (1013.0 mb)
Winds: calm
Visibility: 10 or more miles (16+ km)
Ceiling: at least 12,000 feet AGL
Clouds: clear skies
Present Weather: no significant weather observed at this time
KLAL 261050Z 00000KT 10SM SKC 23/23 A2991

Conditions at: KLAL observed 26 September 2017  09:50 UTC
Temperature: 24.0°C (75°F)
Dewpoint: 23.0°C (73°F) [RH = 94%]
Pressure (altimeter): 29.89 inches Hg (1012.3 mb)
Winds: calm
Visibility: 10 or more miles (16+ km)
Ceiling: at least 12,000 feet AGL
Clouds: clear skies
Present Weather: no significant weather observed at this time
KLAL 260950Z 00000KT 10SM SKC 24/23 A2989

Conditions at: KLAL observed 26 September 2017  09:35 UTC
Temperature: 23.0°C (73°F)
Dewpoint: 23.0°C (73°F) [RH = 100%]
Pressure (altimeter): 29.89 inches Hg (1012.3 mb)
Winds: calm
Visibility: 10 or more miles (16+ km)
Ceiling: at least 12,000 feet AGL
Clouds: sky clear below 12,000 feet AGL
Present Weather: automated observation with no human augmentation;
there may or may not be significant weather present at this time
KLAL 260935Z AUTO 00000KT 10SM CLR 23/23 A2989 RMK AO2

Conditions at: KLAL observed 26 September 2017  09:15 UTC
Temperature: 23.0°C (73°F)
Dewpoint: 23.0°C (73°F) [RH = 100%]
Pressure (altimeter): 29.88 inches Hg (1011.9 mb)
Winds: calm
Visibility: 10 or more miles (16+ km)
Ceiling: at least 12,000 feet AGL
Clouds: sky clear below 12,000 feet AGL
Present Weather: automated observation with no human augmentation;
there may or may not be significant weather present at this time
KLAL 260915Z AUTO 00000KT 10SM CLR 23/23 A2988 RMK AO2

Conditions at: KLAL observed 26 September 2017  08:55 UTC
Temperature: 23.0°C (73°F)
Dewpoint: 23.0°C (73°F) [RH = 100%]
Pressure (altimeter): 29.88 inches Hg (1011.9 mb)
Winds: calm
Visibility: 10 or more miles (16+ km)
Ceiling: at least 12,000 feet AGL
Clouds: sky clear below 12,000 feet AGL
Present Weather: automated observation with no human augmentation;
there may or may not be significant weather present at this time
KLAL 260855Z AUTO 00000KT 10SM CLR 23/23 A2988 RMK AO2

Conditions at: KLAL observed 26 September 2017  08:50 UTC
Temperature: 24.0°C (75°F)
Dewpoint: 23.0°C (73°F) [RH = 94%]
Pressure (altimeter): 29.88 inches Hg (1011.9 mb)
Winds: calm
Visibility: 10 or more miles (16+ km)
Ceiling: at least 12,000 feet AGL
Clouds: clear skies
Present Weather: no significant weather observed at this time
KLAL 260850Z 00000KT 10SM SKC 24/23 A2988

Conditions at: KLAL observed 26 September 2017  08:35 UTC
Temperature: 23.0°C (73°F)
Dewpoint: 22.0°C (72°F) [RH = 94%]
Pressure (altimeter): 29.87 inches Hg (1011.6 mb)
Winds: calm
Visibility: 10 or more miles (16+ km)
Ceiling: at least 12,000 feet AGL
Clouds: sky clear below 12,000 feet AGL
Present Weather: automated observation with no human augmentation;
there may or may not be significant weather present at this time
KLAL 260835Z AUTO 00000KT 10SM CLR 23/22 A2987 RMK AO2

Conditions at: KLAL observed 26 September 2017  08:15 UTC
Temperature: 23.0°C (73°F)
Dewpoint: 23.0°C (73°F) [RH = 100%]
Pressure (altimeter): 29.88 inches Hg (1011.9 mb)
Winds: calm
Visibility: 10 or more miles (16+ km)
Ceiling: at least 12,000 feet AGL
Clouds: sky clear below 12,000 feet AGL
Present Weather: automated observation with no human augmentation;
there may or may not be significant weather present at this time
KLAL 260815Z AUTO 00000KT 10SM CLR 23/23 A2988 RMK AO2

Conditions at: KLAL observed 26 September 2017  07:55 UTC
Temperature: 24.0°C (75°F)
Dewpoint: 23.0°C (73°F) [RH = 94%]
Pressure (altimeter): 29.89 inches Hg (1012.3 mb)
Winds: calm
Visibility: 10 or more miles (16+ km)
Ceiling: at least 12,000 feet AGL
Clouds: sky clear below 12,000 feet AGL
Present Weather: automated observation with no human augmentation;
there may or may not be significant weather present at this time
KLAL 260755Z AUTO 00000KT 10SM CLR 24/23 A2989 RMK AO2

Conditions at: KLAL observed 26 September 2017  07:50 UTC
Temperature: 24.0°C (75°F)
Dewpoint: 23.0°C (73°F) [RH = 94%]
Pressure (altimeter): 29.89 inches Hg (1012.3 mb)
Winds: calm
Visibility: 10 or more miles (16+ km)
Ceiling: at least 12,000 feet AGL
Clouds: clear skies
Present Weather: no significant weather observed at this time
KLAL 260750Z 00000KT 10SM SKC 24/23 A2989

Conditions at: KLAL observed 26 September 2017  07:35 UTC
Temperature: 24.0°C (75°F)
Dewpoint: 22.0°C (72°F) [RH = 89%]
Pressure (altimeter): 29.89 inches Hg (1012.3 mb)
Winds: calm
Visibility: 10 or more miles (16+ km)
Ceiling: at least 12,000 feet AGL
Clouds: scattered clouds at 8000 feet AGL
Present Weather: automated observation with no human augmentation;
there may or may not be significant weather present at this time
KLAL 260735Z AUTO 00000KT 10SM SCT080 24/22 A2989 RMK AO2

Conditions at: KLAL observed 26 September 2017  07:15 UTC
Temperature: 25.0°C (77°F)
Dewpoint: 22.0°C (72°F) [RH = 83%]
Pressure (altimeter): 29.89 inches Hg (1012.3 mb)
Winds: calm
Visibility: 10 or more miles (16+ km)
Ceiling: at least 12,000 feet AGL
Clouds: sky clear below 12,000 feet AGL
Present Weather: automated observation with no human augmentation;
there may or may not be significant weather present at this time
KLAL 260715Z AUTO 00000KT 10SM CLR 25/22 A2989 RMK AO2

Conditions at: KLAL observed 26 September 2017  06:55 UTC
Temperature: 25.0°C (77°F)
Dewpoint: 22.0°C (72°F) [RH = 83%]
Pressure (altimeter): 29.89 inches Hg (1012.3 mb)
Winds: calm
Visibility: 10 or more miles (16+ km)
Ceiling: at least 12,000 feet AGL
Clouds: sky clear below 12,000 feet AGL
Present Weather: automated observation with no human augmentation;
there may or may not be significant weather present at this time
KLAL 260655Z AUTO 00000KT 10SM CLR 25/22 A2989 RMK AO2

Conditions at: KLAL observed 26 September 2017  06:35 UTC
Temperature: 25.0°C (77°F)
Dewpoint: 22.0°C (72°F) [RH = 83%]
Pressure (altimeter): 29.89 inches Hg (1012.3 mb)
Winds: calm
Visibility: 10 or more miles (16+ km)
Ceiling: at least 12,000 feet AGL
Clouds: scattered clouds at 8500 feet AGL
Present Weather: automated observation with no human augmentation;
there may or may not be significant weather present at this time
KLAL 260635Z AUTO 00000KT 10SM SCT085 25/22 A2989 RMK AO2

Conditions at: KLAL observed 26 September 2017  06:15 UTC
Temperature: 25.0°C (77°F)
Dewpoint: 22.0°C (72°F) [RH = 83%]
Pressure (altimeter): 29.89 inches Hg (1012.3 mb)
Winds: calm
Visibility: 10 or more miles (16+ km)
Ceiling: 8500 feet AGL
Clouds: overcast cloud deck at 8500 feet AGL
Present Weather: automated observation with no human augmentation;
there may or may not be significant weather present at this time
KLAL 260615Z AUTO 00000KT 10SM OVC085 25/22 A2989 RMK AO2

Conditions at: KLAL observed 26 September 2017  05:55 UTC
Temperature: 25.0°C (77°F)
Dewpoint: 21.0°C (70°F) [RH = 79%]
Pressure (altimeter): 29.90 inches Hg (1012.6 mb)
Winds: calm
Visibility: 10 or more miles (16+ km)
Ceiling: 8000 feet AGL
Clouds: overcast cloud deck at 8000 feet AGL
Present Weather: automated observation with no human augmentation;
there may or may not be significant weather present at this time
KLAL 260555Z AUTO 00000KT 10SM OVC080 25/21 A2990 RMK AO2

Conditions at: KLAL observed 26 September 2017  05:35 UTC
Temperature: 25.0°C (77°F)
Dewpoint: 21.0°C (70°F) [RH = 79%]
Pressure (altimeter): 29.90 inches Hg (1012.6 mb)
Winds: calm
Visibility: 10 or more miles (16+ km)
Ceiling: 8000 feet AGL
Clouds: scattered clouds at 5500 feet AGL
overcast cloud deck at 8000 feet AGL
Present Weather: automated observation with no human augmentation;
there may or may not be significant weather present at this time
KLAL 260535Z AUTO 00000KT 10SM SCT055 OVC080 25/21 A2990 RMK AO2

Conditions at: KLAL observed 26 September 2017  05:15 UTC
Temperature: 26.0°C (79°F)
Dewpoint: 21.0°C (70°F) [RH = 74%]
Pressure (altimeter): 29.90 inches Hg (1012.6 mb)
Winds: calm
Visibility: 10 or more miles (16+ km)
Ceiling: 5500 feet AGL
Clouds: overcast cloud deck at 5500 feet AGL
Present Weather: automated observation with no human augmentation;
there may or may not be significant weather present at this time
KLAL 260515Z AUTO 00000KT 10SM OVC055 26/21 A2990 RMK AO2

Conditions at: KLAL observed 26 September 2017  04:58 UTC
Temperature: 26.0°C (79°F)
Dewpoint: 21.0°C (70°F) [RH = 74%]
Pressure (altimeter): 29.90 inches Hg (1012.6 mb)
Winds: calm
Visibility: 10 or more miles (16+ km)
Ceiling: at least 12,000 feet AGL
Clouds: scattered clouds at 6000 feet AGL
Present Weather: no significant weather observed at this time
KLAL 260458Z 00000KT 10SM SCT060 26/21 A2990

Conditions at: KLAL observed 26 September 2017  04:55 UTC
Temperature: 26.0°C (79°F)
Dewpoint: 21.0°C (70°F) [RH = 74%]
Pressure (altimeter): 29.90 inches Hg (1012.6 mb)
Winds: calm
Visibility: 10 or more miles (16+ km)
Ceiling: 5500 feet AGL
Clouds: broken clouds at 5500 feet AGL
overcast cloud deck at 7000 feet AGL
Present Weather: automated observation with no human augmentation;
there may or may not be significant weather present at this time
KLAL 260455Z AUTO 00000KT 10SM BKN055 OVC070 26/21 A2990 RMK AO2

Conditions at: KLAL observed 26 September 2017  04:35 UTC
Temperature: 25.0°C (77°F)
Dewpoint: 21.0°C (70°F) [RH = 79%]
Pressure (altimeter): 29.90 inches Hg (1012.6 mb)
Winds: calm
Visibility: 10 or more miles (16+ km)
Ceiling: 5500 feet AGL
Clouds: broken clouds at 5500 feet AGL
overcast cloud deck at 6500 feet AGL
Present Weather: automated observation with no human augmentation;
there may or may not be significant weather present at this time
KLAL 260435Z AUTO 00000KT 10SM BKN055 OVC065 25/21 A2990 RMK AO2

Conditions at: KLAL observed 26 September 2017  04:15 UTC
Temperature: 26.0°C (79°F)
Dewpoint: 21.0°C (70°F) [RH = 74%]
Pressure (altimeter): 29.90 inches Hg (1012.6 mb)
Winds: from the N (360 degrees) at 5 MPH (4 knots; 2.1 m/s)
Visibility: 10 or more miles (16+ km)
Ceiling: 5500 feet AGL
Clouds: broken clouds at 5500 feet AGL
overcast cloud deck at 6500 feet AGL
Present Weather: automated observation with no human augmentation;
there may or may not be significant weather present at this time
KLAL 260415Z AUTO 36004KT 10SM BKN055 OVC065 26/21 A2990 RMK AO2

Conditions at: KLAL observed 26 September 2017  03:55 UTC
Temperature: 25.0°C (77°F)
Dewpoint: 21.0°C (70°F) [RH = 79%]
Pressure (altimeter): 29.91 inches Hg (1013.0 mb)
Winds: from the NNE (30 degrees) at 5 MPH (4 knots; 2.1 m/s)
Visibility: 10 or more miles (16+ km)
Ceiling: 5500 feet AGL
Clouds: broken clouds at 5500 feet AGL
Present Weather: automated observation with no human augmentation;
there may or may not be significant weather present at this time
KLAL 260355Z AUTO 03004KT 10SM BKN055 25/21 A2991 RMK AO2

Conditions at: KLAL observed 26 September 2017  03:50 UTC
Temperature: 26.0°C (79°F)
Dewpoint: 21.0°C (70°F) [RH = 74%]
Pressure (altimeter): 29.91 inches Hg (1013.0 mb)
Winds: from the N (360 degrees) at 6 MPH (5 knots; 2.6 m/s)
Visibility: 10 or more miles (16+ km)
Ceiling: at least 12,000 feet AGL
Clouds: scattered clouds at 6000 feet AGL
Present Weather: no significant weather observed at this time
KLAL 260350Z 36005KT 10SM SCT060 26/21 A2991

Conditions at: KLAL observed 26 September 2017  03:35 UTC
Temperature: 25.0°C (77°F)
Dewpoint: 21.0°C (70°F) [RH = 79%]
Pressure (altimeter): 29.90 inches Hg (1012.6 mb)
Winds: from the NE (50 degrees) at 8 MPH (7 knots; 3.6 m/s)
Visibility: 10 or more miles (16+ km)
Ceiling: at least 12,000 feet AGL
Clouds: sky clear below 12,000 feet AGL
Present Weather: automated observation with no human augmentation;
there may or may not be significant weather present at this time
KLAL 260335Z AUTO 05007KT 10SM CLR 25/21 A2990 RMK AO2

Conditions at: KLAL observed 26 September 2017  03:15 UTC
Temperature: 26.0°C (79°F)
Dewpoint: 21.0°C (70°F) [RH = 74%]
Pressure (altimeter): 29.90 inches Hg (1012.6 mb)
Winds: from the NW (320 degrees) at 3 MPH (3 knots; 1.6 m/s)
Visibility: 10 or more miles (16+ km)
Ceiling: at least 12,000 feet AGL
Clouds: sky clear below 12,000 feet AGL
Present Weather: automated observation with no human augmentation;
there may or may not be significant weather present at this time
KLAL 260315Z AUTO 32003KT 10SM CLR 26/21 A2990 RMK AO2

Conditions at: KLAL observed 26 September 2017  02:55 UTC
Temperature: 26.0°C (79°F)
Dewpoint: 21.0°C (70°F) [RH = 74%]
Pressure (altimeter): 29.90 inches Hg (1012.6 mb)
Winds: from the NNW (330 degrees) at 5 MPH (4 knots; 2.1 m/s)
Visibility: 10 or more miles (16+ km)
Ceiling: at least 12,000 feet AGL
Clouds: scattered clouds at 6000 feet AGL
Present Weather: automated observation with no human augmentation;
there may or may not be significant weather present at this time
KLAL 260255Z AUTO 33004KT 10SM SCT060 26/21 A2990 RMK AO2

Conditions at: KLAL observed 26 September 2017  02:45 UTC
Temperature: 26.0°C (79°F)
Dewpoint: 21.0°C (70°F) [RH = 74%]
Pressure (altimeter): 29.90 inches Hg (1012.6 mb)
Winds: from the NW (310 degrees) at 5 MPH (4 knots; 2.1 m/s)
Visibility: 10 or more miles (16+ km)
Ceiling: at least 12,000 feet AGL
Clouds: scattered clouds at 6000 feet AGL
Present Weather: no significant weather observed at this time
KLAL 260245Z 31004KT 10SM SCT060 26/21 A2990

Conditions at: KLAL observed 26 September 2017  02:35 UTC
Temperature: 26.0°C (79°F)
Dewpoint: 21.0°C (70°F) [RH = 74%]
Pressure (altimeter): 29.90 inches Hg (1012.6 mb)
Winds: from the WNW (300 degrees) at 5 MPH (4 knots; 2.1 m/s)
Visibility: 10 or more miles (16+ km)
Ceiling: 6000 feet AGL
Clouds: broken clouds at 6000 feet AGL
Present Weather: automated observation with no human augmentation;
there may or may not be significant weather present at this time
KLAL 260235Z AUTO 30004KT 10SM BKN060 26/21 A2990 RMK AO2

Conditions at: KLAL observed 26 September 2017  02:15 UTC
Temperature: 26.0°C (79°F)
Dewpoint: 21.0°C (70°F) [RH = 74%]
Pressure (altimeter): 29.90 inches Hg (1012.6 mb)
Winds: calm
Visibility: 10 or more miles (16+ km)
Ceiling: 6000 feet AGL
Clouds: overcast cloud deck at 6000 feet AGL
Present Weather: automated observation with no human augmentation;
there may or may not be significant weather present at this time
KLAL 260215Z AUTO 00000KT 10SM OVC060 26/21 A2990 RMK AO2

Conditions at: KLAL observed 26 September 2017  01:50 UTC
Temperature: 27.0°C (81°F)
Dewpoint: 21.0°C (70°F) [RH = 70%]
Pressure (altimeter): 29.89 inches Hg (1012.3 mb)
Winds: calm
Visibility: 10 or more miles (16+ km)
Ceiling: at least 12,000 feet AGL
Clouds: scattered clouds at 6000 feet AGL
Present Weather: no significant weather observed at this time
KLAL 260150Z 00000KT 10SM SCT060 27/21 A2989

Conditions at: KLAL observed 26 September 2017  00:50 UTC
Temperature: 27.0°C (81°F)
Dewpoint: 21.0°C (70°F) [RH = 70%]
Pressure (altimeter): 29.87 inches Hg (1011.6 mb)
Winds: calm
Visibility: 10 or more miles (16+ km)
Ceiling: at least 12,000 feet AGL
Clouds: scattered clouds at 5000 feet AGL
Present Weather: no significant weather observed at this time
KLAL 260050Z 00000KT 10SM SCT050 27/21 A2987

Conditions at: KLAL observed 25 September 2017  23:50 UTC
Temperature: 29.0°C (84°F)
Dewpoint: 21.0°C (70°F) [RH = 62%]
Pressure (altimeter): 29.85 inches Hg (1010.9 mb)
Winds: variable direction winds at 5 MPH (4 knots; 2.1 m/s)
Visibility: 10 or more miles (16+ km)
Ceiling: at least 12,000 feet AGL
Clouds: scattered clouds at 5000 feet AGL
Present Weather: no significant weather observed at this time
KLAL 252350Z VRB04KT 10SM SCT050 29/21 A2985

Conditions at: KLAL observed 25 September 2017  22:54 UTC
Temperature: 31.0°C (88°F)
Dewpoint: 21.0°C (70°F) [RH = 55%]
Pressure (altimeter): 29.83 inches Hg (1010.2 mb)
Winds: calm
Visibility: 10 or more miles (16+ km)
Ceiling: at least 12,000 feet AGL
Clouds: scattered clouds at 5000 feet AGL
Present Weather: no significant weather observed at this time
KLAL 252254Z 00000KT 10SM SCT050 31/21 A2983

Conditions at: KLAL observed 25 September 2017  21:50 UTC
Temperature: 32.0°C (90°F)
Dewpoint: 21.0°C (70°F) [RH = 52%]
Pressure (altimeter): 29.83 inches Hg (1010.2 mb)
Winds: from the N (360 degrees) at 6 MPH (5 knots; 2.6 m/s)
Visibility: 10 or more miles (16+ km)
Ceiling: at least 12,000 feet AGL
Clouds: scattered clouds at 5000 feet AGL
Present Weather: no significant weather observed at this time
KLAL 252150Z 36005KT 10SM SCT050 32/21 A2983

Conditions at: KLAL observed 25 September 2017  20:50 UTC
Temperature: 32.0°C (90°F)
Dewpoint: 21.0°C (70°F) [RH = 52%]
Pressure (altimeter): 29.83 inches Hg (1010.2 mb)
Winds: calm
Visibility: 10 or more miles (16+ km)
Ceiling: 5000 feet AGL
Clouds: broken clouds at 5000 feet AGL
Present Weather: no significant weather observed at this time
KLAL 252050Z 00000KT 10SM BKN050 32/21 A2983

Conditions at: KLAL observed 25 September 2017  19:50 UTC
Temperature: 32.0°C (90°F)
Dewpoint: 21.0°C (70°F) [RH = 52%]
Pressure (altimeter): 29.84 inches Hg (1010.6 mb)
Winds: calm
Visibility: 10 or more miles (16+ km)
Ceiling: 5000 feet AGL
Clouds: broken clouds at 5000 feet AGL
Present Weather: no significant weather observed at this time
KLAL 251950Z 00000KT 10SM BKN050 32/21 A2984

Conditions at: KLAL observed 25 September 2017  18:50 UTC
Temperature: 32.0°C (90°F)
Dewpoint: 21.0°C (70°F) [RH = 52%]
Pressure (altimeter): 29.86 inches Hg (1011.3 mb)
Winds: calm
Visibility: 10 or more miles (16+ km)
Ceiling: at least 12,000 feet AGL
Clouds: scattered clouds at 4400 feet AGL
Present Weather: no significant weather observed at this time
KLAL 251850Z 00000KT 10SM SCT044 32/21 A2986

Conditions at: KLAL observed 25 September 2017  17:54 UTC
Temperature: 31.0°C (88°F)
Dewpoint: 22.0°C (72°F) [RH = 59%]
Pressure (altimeter): 29.90 inches Hg (1012.6 mb)
Winds: calm
Visibility: 10 or more miles (16+ km)
Ceiling: at least 12,000 feet AGL
Clouds: scattered clouds at 3500 feet AGL
Present Weather: no significant weather observed at this time
KLAL 251754Z 00000KT 10SM SCT035 31/22 A2990

Conditions at: KLAL observed 25 September 2017  16:50 UTC
Temperature: 31.0°C (88°F)
Dewpoint: 22.0°C (72°F) [RH = 59%]
Pressure (altimeter): 29.92 inches Hg (1013.3 mb)
Winds: calm
Visibility: 10 or more miles (16+ km)
Ceiling: at least 12,000 feet AGL
Clouds: few clouds at 2000 feet AGL
scattered clouds at 9000 feet AGL
Present Weather: no significant weather observed at this time
KLAL 251650Z 00000KT 10SM FEW020 SCT090 31/22 A2992

Conditions at: KLAL observed 25 September 2017  15:50 UTC
Temperature: 28.0°C (82°F)
Dewpoint: 22.0°C (72°F) [RH = 70%]
Pressure (altimeter): 29.93 inches Hg (1013.6 mb)
Winds: calm
Visibility: 10 or more miles (16+ km)
Ceiling: at least 12,000 feet AGL
Clouds: scattered clouds at 8000 feet AGL
Present Weather: no significant weather observed at this time
KLAL 251550Z 00000KT 10SM SCT080 28/22 A2993

Conditions at: KLAL observed 25 September 2017  14:50 UTC
Temperature: 27.0°C (81°F)
Dewpoint: 22.0°C (72°F) [RH = 74%]
Pressure (altimeter): 29.94 inches Hg (1014.0 mb)
Winds: calm
Visibility: 10 or more miles (16+ km)
Ceiling: 8000 feet AGL
Clouds: broken clouds at 8000 feet AGL
Present Weather: no significant weather observed at this time
KLAL 251450Z 00000KT 10SM BKN080 27/22 A2994